Aérodrome :
LOGIN :

S'inscrire | Disclaimer

   EN    FR    IT 

 










Légende :    VFR   VFR Marginal   IFR   IFR Intensif   IFR Très Intensif
Visi : 
Plafond : 
>= 8 km
>= 3000ft
5 à 8 km
1000 à 3000 ft
1500m à 5 km
500 à 1000 ft
800 à 1500m
200 à 500 ft
< 800m
< 200 ft
Symboles :   Orages  Brouillard  Fortes neiges  Fortes précipitations  Vent > 20 kt
SIGMETs :   Divers  Orages  Givrage  Turbulence  Onde Orograph.  Cendres Volcan.







- Altitude de l'aérodrome : 1475 ft


LSZC - Buochs Stans

DERNIER METAR :
  • 221150Z 08006KT 040V110 9999 FEW050 22/13 Q1012

METARs EXPIRÉS :
  • 221120Z AUTO VRB03KT CAVOK 21/12 Q1012
  • 221050Z AUTO 10005KT 030V150 9999 NSC 21/12 Q1012
  • 221020Z AUTO 09005KT 050V130 9999 NSC 20/13 Q1013
  • 220950Z AUTO 06005KT 020V100 CAVOK 19/13 Q1013
  • 220920Z 06005KT 9999 FEW050 18/12 Q1013

TAF TAF LSZC
Valide du 22 à 12h jusqu'au 22 à 21h UTC


221125Z 2212/2221 VRB03KT 9999 SCT050 BKN150
TEMPO 2212/2221 SHRA SCT040TCU
PROB40
TEMPO 2212/2221 27015G28KT 3000 TSRA SCT040CB
Pas de NOTAMs connus pour ce terrain.



MET'MAP, la Météo Aéronautique d'un coup d'oeil ! - Copyright ORBIFLY Décembre 2007 - Disclaimer

ORBIFLY MET'MAP TEAM :

Programmation & Développement : Alexandra Zaïnal
Conception & Développement : Baudouin d'Aumeries
Co-Programmation & Développement : Marc-Olivier Méhu
Soutien technique & logistique : Manuel Goepfert

Contact : metmap@orbifly.com




SOURCES & CREDITS :

   NOAA